createdAt,value
2019-01-03T00:03:46.530Z,53.00
2019-01-03T00:12:40.221Z,52.70
2019-01-03T00:19:28.750Z,52.20
2019-01-03T00:26:19.395Z,53.40
2019-01-03T00:33:08.249Z,55.50
2019-01-03T00:40:15.243Z,57.70
2019-01-03T00:47:02.915Z,57.80
2019-01-03T00:54:29.287Z,58.80
2019-01-03T01:01:24.009Z,58.90
2019-01-03T01:09:15.917Z,60.30
2019-01-03T01:16:04.665Z,60.30
2019-01-03T01:22:53.308Z,60.90
2019-01-03T01:31:45.993Z,61.70
2019-01-03T01:38:53.923Z,61.70
2019-01-03T01:47:45.573Z,61.60
2019-01-03T01:54:35.505Z,61.40
2019-01-03T02:01:24.261Z,62.40
2019-01-03T02:08:13.053Z,63.80
2019-01-03T02:15:15.849Z,63.20
2019-01-03T02:22:04.758Z,63.60
2019-01-03T02:28:57.469Z,63.50
2019-01-03T02:35:47.181Z,63.00
2019-01-03T02:42:42.760Z,62.60
2019-01-03T02:50:04.057Z,63.00
2019-01-03T02:56:53.508Z,62.80
2019-01-03T03:04:12.114Z,62.50
2019-01-03T03:11:15.748Z,62.30
2019-01-03T03:18:04.577Z,63.10
2019-01-03T03:24:53.588Z,63.10
2019-01-03T03:31:42.247Z,63.00
2019-01-03T03:38:31.025Z,63.50
2019-01-03T03:45:19.809Z,64.00
2019-01-03T03:52:13.415Z,63.70
2019-01-03T03:59:20.390Z,64.60
2019-01-03T04:06:09.063Z,64.50
2019-01-03T04:12:59.734Z,65.80
2019-01-03T04:20:22.813Z,63.80
2019-01-03T04:27:11.690Z,63.20
2019-01-03T04:34:14.790Z,63.40
2019-01-03T04:41:05.454Z,64.10
2019-01-03T04:47:54.194Z,65.10
2019-01-03T04:54:42.985Z,65.10
2019-01-03T05:01:45.749Z,65.10
2019-01-03T05:08:40.438Z,64.30
2019-01-03T05:15:29.311Z,63.80
2019-01-03T05:22:18.087Z,64.40
2019-01-03T05:29:05.744Z,65.60
2019-01-03T05:35:54.653Z,67.70
2019-01-03T05:42:43.233Z,68.40
2019-01-03T05:50:07.802Z,68.60
2019-01-03T05:56:56.498Z,69.00
2019-01-03T06:03:47.062Z,69.50
2019-01-03T06:10:35.749Z,69.70
2019-01-03T06:18:28.278Z,70.70
2019-01-03T06:25:17.138Z,70.10
2019-01-03T06:34:10.558Z,68.20
2019-01-03T06:40:58.347Z,67.10
2019-01-03T06:47:47.221Z,67.50
2019-01-03T06:54:35.993Z,68.40
2019-01-03T07:01:24.869Z,69.10
2019-01-03T07:08:16.285Z,70.30
2019-01-03T07:15:09.914Z,69.80
2019-01-03T07:22:04.565Z,70.30
2019-01-03T07:28:53.125Z,67.30
2019-01-03T07:35:47.765Z,64.20
2019-01-03T07:43:35.402Z,61.90
2019-01-03T07:50:27.258Z,61.20
2019-01-03T07:57:15.917Z,60.10
2019-01-03T08:05:02.580Z,58.50
2019-01-03T08:13:52.262Z,56.70
2019-01-03T08:20:41.109Z,56.40
2019-01-03T08:34:32.832Z,54.00
2019-01-03T08:41:52.846Z,53.20
2019-01-03T08:48:42.405Z,52.80
2019-01-03T08:55:36.990Z,52.90
2019-01-03T09:02:27.502Z,53.40
2019-01-03T09:10:19.146Z,52.50
2019-01-03T09:17:11.795Z,52.80
2019-01-03T09:25:00.582Z,52.20
2019-01-03T09:31:49.390Z,52.20
2019-01-03T09:38:41.171Z,50.60
2019-01-03T09:45:24.642Z,49.90
2019-01-03T09:52:08.089Z,49.20
2019-01-03T09:58:51.597Z,48.30
2019-01-03T10:05:35.043Z,48.30
2019-01-03T10:12:18.505Z,47.40
2019-01-03T10:19:01.957Z,46.40
2019-01-03T10:25:45.417Z,46.20
2019-01-03T10:32:28.955Z,45.00
2019-01-03T10:39:12.419Z,44.40
2019-01-03T10:45:55.905Z,44.40
2019-01-03T10:52:39.353Z,44.20
2019-01-03T10:59:22.987Z,44.80
2019-01-03T11:06:06.481Z,42.30
2019-01-03T11:12:49.997Z,42.10
2019-01-03T11:19:33.455Z,42.40
2019-01-03T11:26:16.915Z,40.40
2019-01-03T11:33:00.385Z,39.30
2019-01-03T11:39:43.860Z,38.60
2019-01-03T11:46:27.333Z,38.40
2019-01-03T11:53:10.786Z,37.20
2019-01-03T11:59:54.218Z,36.60
2019-01-03T12:06:37.657Z,37.60
2019-01-03T12:13:21.110Z,37.30
2019-01-03T12:20:04.878Z,37.70
2019-01-03T12:26:48.433Z,38.00
2019-01-03T12:33:31.881Z,37.00
2019-01-03T12:40:15.341Z,37.90
2019-01-03T12:46:58.815Z,37.50
2019-01-03T12:53:42.261Z,39.00
2019-01-03T13:00:25.702Z,40.70
2019-01-03T13:07:09.186Z,42.30
2019-01-03T13:13:52.645Z,43.80
2019-01-03T13:20:36.113Z,45.30
2019-01-03T13:27:19.556Z,48.30
2019-01-03T13:34:03.103Z,49.50
2019-01-03T13:40:46.621Z,50.30
2019-01-03T13:47:30.094Z,52.20
2019-01-03T13:54:13.541Z,54.20
2019-01-03T14:00:56.993Z,56.60
2019-01-03T14:07:40.950Z,58.90
2019-01-03T14:14:24.406Z,59.30
2019-01-03T14:21:07.876Z,59.90
2019-01-03T14:27:51.332Z,60.60
2019-01-03T14:34:34.790Z,63.40
2019-01-03T14:41:18.242Z,65.90
2019-01-03T14:48:01.689Z,67.40
2019-01-03T14:54:45.142Z,67.90
2019-01-03T15:01:28.646Z,67.20
2019-01-03T15:08:12.109Z,68.10
2019-01-03T15:14:55.654Z,68.90
2019-01-03T15:21:39.361Z,70.10
2019-01-03T15:28:22.805Z,71.40
2019-01-03T15:35:06.397Z,71.10
2019-01-03T15:41:49.940Z,70.40
2019-01-03T15:48:33.489Z,69.70
2019-01-03T15:55:17.086Z,70.80
2019-01-03T16:02:00.589Z,70.30
2019-01-03T16:08:44.157Z,69.30
2019-01-03T16:15:27.730Z,68.90
2019-01-03T16:22:11.250Z,68.60
2019-01-03T16:28:54.709Z,68.00
2019-01-03T16:35:38.157Z,67.80
2019-01-03T16:42:21.720Z,67.50
2019-01-03T16:49:05.209Z,66.60
2019-01-03T16:55:48.653Z,67.50
2019-01-03T17:02:32.146Z,67.70
2019-01-03T17:09:15.650Z,67.90
2019-01-03T17:15:59.115Z,67.90
2019-01-03T17:22:42.733Z,68.10
2019-01-03T17:29:26.288Z,69.40
2019-01-03T17:43:25.601Z,70.90
2019-01-03T17:50:09.792Z,70.30
2019-01-03T17:56:54.137Z,69.60
2019-01-03T18:03:39.319Z,69.70
2019-01-03T18:10:22.805Z,69.40
2019-01-03T18:17:06.314Z,69.00
2019-01-03T18:23:49.838Z,68.50
2019-01-03T18:30:33.305Z,69.30
2019-01-03T18:37:18.669Z,68.30
2019-01-03T18:44:02.137Z,68.70
2019-01-03T18:50:45.614Z,68.90
2019-01-03T18:57:29.177Z,69.10
2019-01-03T19:05:59.861Z,69.50
2019-01-03T19:12:43.394Z,69.50
2019-01-03T19:19:26.975Z,69.90
2019-01-03T19:26:11.558Z,69.50
2019-01-03T19:32:55.115Z,70.30
2019-01-03T19:39:39.597Z,70.80
2019-01-03T19:46:23.118Z,72.40
2019-01-03T19:53:06.582Z,72.80
2019-01-03T19:59:50.166Z,73.70
2019-01-03T20:06:33.690Z,73.80
2019-01-03T20:13:17.236Z,73.70
2019-01-03T20:26:31.293Z,73.30
2019-01-03T20:40:42.916Z,73.10
2019-01-03T20:47:27.032Z,73.30
2019-01-03T20:54:11.060Z,73.90
2019-01-03T21:00:55.153Z,74.40
2019-01-03T21:12:58.718Z,73.80
2019-01-03T21:19:42.762Z,73.90
2019-01-03T21:32:46.990Z,74.00
2019-01-03T21:39:31.243Z,73.90
2019-01-03T21:46:16.268Z,73.80
2019-01-03T21:59:05.076Z,73.30
2019-01-03T22:05:49.122Z,72.90
2019-01-03T22:12:33.293Z,72.50
2019-01-03T22:19:17.335Z,71.70
2019-01-03T22:26:01.429Z,71.60
2019-01-03T22:32:45.498Z,72.00
2019-01-03T22:39:29.553Z,72.20
2019-01-03T22:46:13.679Z,72.50
2019-01-03T22:52:59.553Z,72.50
2019-01-03T22:59:43.621Z,72.30
2019-01-03T23:06:27.711Z,72.80
2019-01-03T23:13:11.858Z,72.30
2019-01-03T23:19:55.934Z,72.40
2019-01-03T23:26:40.014Z,72.00
2019-01-03T23:33:24.178Z,72.00
2019-01-03T23:40:08.297Z,71.50
2019-01-03T23:46:52.485Z,71.40
2019-01-03T23:53:37.509Z,71.20
